createdAt,value
2023-02-14T13:35:54.845Z,25.58
2023-02-14T13:40:45.244Z,24.92
2023-02-14T13:45:59.529Z,25.77
2023-02-14T13:51:00.000Z,26.02
2023-02-14T13:55:56.122Z,24.10
2023-02-14T14:00:49.541Z,26.55
2023-02-14T14:06:09.960Z,24.80
2023-02-14T14:11:10.549Z,26.08
2023-02-14T14:16:35.341Z,24.08
2023-02-14T14:21:35.176Z,23.88
2023-02-14T14:26:39.280Z,24.70
2023-02-14T14:31:33.174Z,23.05
2023-02-14T14:36:32.348Z,23.20
2023-02-14T14:41:32.887Z,26.58
2023-02-14T14:46:25.435Z,24.88
2023-02-14T14:51:28.602Z,23.23
2023-02-14T14:56:36.565Z,25.58
2023-02-14T15:01:37.519Z,24.33
2023-02-14T15:06:30.372Z,25.35
2023-02-14T15:11:43.870Z,24.38
2023-02-14T15:16:46.847Z,25.30
2023-02-14T15:21:44.590Z,25.23
2023-02-14T15:26:42.558Z,23.52
2023-02-14T15:31:38.920Z,24.08
2023-02-14T15:36:34.233Z,24.40
2023-02-14T15:41:29.012Z,23.25
2023-02-14T15:46:30.641Z,22.80
2023-02-14T15:51:30.348Z,24.17
2023-02-14T15:56:32.682Z,25.60
2023-02-14T16:01:27.757Z,24.95
2023-02-14T16:06:33.622Z,26.58
2023-02-14T16:11:39.188Z,25.02
2023-02-14T16:17:02.483Z,24.67
2023-02-14T16:22:00.136Z,24.00
2023-02-14T16:26:56.767Z,26.73
2023-02-14T16:32:15.069Z,23.95
2023-02-14T16:37:12.340Z,25.42
2023-02-14T16:42:12.190Z,25.42
2023-02-14T19:00:22.262Z,27.60
2023-02-14T19:05:20.180Z,29.03
2023-02-14T19:10:20.750Z,28.33
2023-02-14T19:15:14.525Z,30.17
2023-02-14T19:20:13.354Z,28.13
2023-02-14T19:25:10.364Z,28.08
2023-02-14T19:30:04.052Z,28.95
2023-02-14T19:35:07.275Z,31.02
2023-02-14T19:40:00.760Z,29.52
